Terminal Aerodrome Forecast
Issued by NWS

Home | Current Version | Previous Version | Text Only | Print | Product List | Glossary On
Versions: 1 2 3 4 5 6 7 8 9 10 11
000
FTAK31 PAFC 141733
TAFAGK
TAF
PAGK 141733Z 1418/1518 34004KT P6SM FEW200
      TEMPO 1418/1420 1SM BR OVC002
     FM150300 15004KT P6SM FEW050 SCT120=

USA.gov is the U.S. government's official web portal to all federal, state and local government web resources and services.